Accueil
METAR-TAF:

METAR-TAF

Aéroports :

Toyama, Japon

latitude: 36-39N, longitude: 137-11E, altitude: 24 m

Observation

Le bulletin a été fait il y a 52 minutes, à 07:00 UTC
Vent 7 kt de sud-ouest
Température 5°C
Humidité 70%
Pression 1029 hPa
Visibilité 10 km ou plus
Quelques nuages à une hauteur de 2000 ft
Nuages fragmentés à une hauteur de 6000 ft
Nuages fragmentés
averses à proximité

METAR: RJNT 060700Z 22007KT 9999 VCSH FEW020 BKN060 BKN/// 05/M00 Q1029

Heure: 16:52 (07:52 UTC)

Prévision

Le bulletin a été fait il y a 2 heures et 47 minutes, à 05:05 UTC
Prévision valable du 06 à 06 UTC au 07 à 12 UTC
Vent 4 kt de sud-ouest
Visibilité 10 km ou plus
Quelques nuages à une hauteur de 2000 ft
Nuages fragmentés à une hauteur de 4000 ft

TAF: RJNT 060505Z 0606/0712 22004KT 9999 FEW020 BKN040

Observations et prévisions météorologiques de plus de 4000 aéroports (messages METAR et TAF).

Les stations disponibles sont représentées par des disques jaunes et rouges sur la carte.

Passer la souris dessus pour voir le nom de la station.

Cliquer dessus pour voir les observations et prévisions météorologiques.

Pour changer de carte: cliquez sur les boutons verts avec une croix noire pour zoomer, sur le bouton vert avec un tiret pour effectuer un zoom arrière, ou sur les flèches vertes pour les cartes adjacentes.


METAR-TAF: